sensor_id;sensor_type;location;lat;lon;timestamp;P1;durP1;ratioP1;P2;durP2;ratioP2
3379;SDS011;1703;51.964;7.642;2022-08-03T00:01:02;5.20;;;4.70;;
3379;SDS011;1703;51.964;7.642;2022-08-03T00:03:29;6.50;;;4.07;;
3379;SDS011;1703;51.964;7.642;2022-08-03T00:05:56;4.63;;;4.23;;
3379;SDS011;1703;51.964;7.642;2022-08-03T00:08:25;5.17;;;4.47;;
3379;SDS011;1703;51.964;7.642;2022-08-03T00:10:52;10.43;;;4.80;;
3379;SDS011;1703;51.964;7.642;2022-08-03T00:13:18;4.07;;;3.73;;
3379;SDS011;1703;51.964;7.642;2022-08-03T00:15:45;5.30;;;3.73;;
3379;SDS011;1703;51.964;7.642;2022-08-03T00:18:12;4.93;;;4.47;;
3379;SDS011;1703;51.964;7.642;2022-08-03T00:20:39;4.83;;;3.80;;
3379;SDS011;1703;51.964;7.642;2022-08-03T00:23:06;5.53;;;4.47;;
3379;SDS011;1703;51.964;7.642;2022-08-03T00:25:34;4.07;;;3.67;;
3379;SDS011;1703;51.964;7.642;2022-08-03T00:28:02;5.77;;;4.00;;
3379;SDS011;1703;51.964;7.642;2022-08-03T00:30:30;7.33;;;4.27;;
3379;SDS011;1703;51.964;7.642;2022-08-03T00:32:57;7.50;;;4.67;;
3379;SDS011;1703;51.964;7.642;2022-08-03T00:35:24;4.37;;;3.67;;
3379;SDS011;1703;51.964;7.642;2022-08-03T00:37:51;4.70;;;3.33;;
3379;SDS011;1703;51.964;7.642;2022-08-03T00:40:19;4.73;;;3.90;;
3379;SDS011;1703;51.964;7.642;2022-08-03T00:42:48;3.80;;;3.40;;
3379;SDS011;1703;51.964;7.642;2022-08-03T00:45:18;4.93;;;3.80;;
3379;SDS011;1703;51.964;7.642;2022-08-03T00:47:46;5.87;;;3.67;;
3379;SDS011;1703;51.964;7.642;2022-08-03T00:50:14;4.13;;;3.33;;
3379;SDS011;1703;51.964;7.642;2022-08-03T00:52:42;6.00;;;4.03;;
3379;SDS011;1703;51.964;7.642;2022-08-03T00:55:09;5.13;;;3.70;;
3379;SDS011;1703;51.964;7.642;2022-08-03T00:57:36;4.07;;;3.70;;
3379;SDS011;1703;51.964;7.642;2022-08-03T01:00:06;7.43;;;4.93;;
3379;SDS011;1703;51.964;7.642;2022-08-03T01:02:34;4.60;;;4.20;;
3379;SDS011;1703;51.964;7.642;2022-08-03T01:05:01;4.47;;;4.07;;
3379;SDS011;1703;51.964;7.642;2022-08-03T01:07:32;4.40;;;4.07;;
3379;SDS011;1703;51.964;7.642;2022-08-03T01:10:09;6.00;;;4.03;;
3379;SDS011;1703;51.964;7.642;2022-08-03T01:12:42;5.60;;;3.90;;
3379;SDS011;1703;51.964;7.642;2022-08-03T01:15:20;5.40;;;3.80;;
3379;SDS011;1703;51.964;7.642;2022-08-03T01:17:55;4.93;;;4.20;;
3379;SDS011;1703;51.964;7.642;2022-08-03T01:20:26;5.37;;;4.20;;
3379;SDS011;1703;51.964;7.642;2022-08-03T01:26:08;4.20;;;3.80;;
3379;SDS011;1703;51.964;7.642;2022-08-03T01:28:47;6.60;;;3.87;;
3379;SDS011;1703;51.964;7.642;2022-08-03T01:31:25;10.13;;;3.60;;
3379;SDS011;1703;51.964;7.642;2022-08-03T01:33:55;4.80;;;3.83;;
3379;SDS011;1703;51.964;7.642;2022-08-03T01:36:25;5.27;;;4.20;;
3379;SDS011;1703;51.964;7.642;2022-08-03T01:38:57;4.10;;;3.80;;
3379;SDS011;1703;51.964;7.642;2022-08-03T01:41:28;4.23;;;3.80;;
3379;SDS011;1703;51.964;7.642;2022-08-03T01:43:57;4.87;;;4.47;;
3379;SDS011;1703;51.964;7.642;2022-08-03T01:46:27;6.70;;;4.20;;
3379;SDS011;1703;51.964;7.642;2022-08-03T01:48:56;4.50;;;4.10;;
3379;SDS011;1703;51.964;7.642;2022-08-03T01:51:24;4.73;;;4.03;;
3379;SDS011;1703;51.964;7.642;2022-08-03T01:53:52;5.67;;;3.70;;
3379;SDS011;1703;51.964;7.642;2022-08-03T01:56:20;4.67;;;3.90;;
3379;SDS011;1703;51.964;7.642;2022-08-03T01:58:49;4.30;;;3.90;;
3379;SDS011;1703;51.964;7.642;2022-08-03T02:01:18;5.27;;;4.20;;
3379;SDS011;1703;51.964;7.642;2022-08-03T02:03:48;4.63;;;4.10;;
3379;SDS011;1703;51.964;7.642;2022-08-03T02:06:17;5.27;;;4.77;;
3379;SDS011;1703;51.964;7.642;2022-08-03T02:08:46;4.60;;;4.20;;
3379;SDS011;1703;51.964;7.642;2022-08-03T02:11:14;8.13;;;3.90;;
3379;SDS011;1703;51.964;7.642;2022-08-03T02:13:41;4.60;;;3.53;;
3379;SDS011;1703;51.964;7.642;2022-08-03T02:16:11;6.13;;;4.00;;
3379;SDS011;1703;51.964;7.642;2022-08-03T02:18:40;4.90;;;3.60;;
3379;SDS011;1703;51.964;7.642;2022-08-03T02:21:09;6.33;;;4.00;;
3379;SDS011;1703;51.964;7.642;2022-08-03T02:23:37;6.23;;;4.13;;
3379;SDS011;1703;51.964;7.642;2022-08-03T02:26:06;5.10;;;3.80;;
3379;SDS011;1703;51.964;7.642;2022-08-03T02:28:41;3.93;;;3.53;;
3379;SDS011;1703;51.964;7.642;2022-08-03T02:31:11;5.60;;;3.90;;
3379;SDS011;1703;51.964;7.642;2022-08-03T02:33:42;6.70;;;3.60;;
3379;SDS011;1703;51.964;7.642;2022-08-03T02:36:14;11.27;;;4.23;;
3379;SDS011;1703;51.964;7.642;2022-08-03T02:38:44;6.03;;;3.40;;
3379;SDS011;1703;51.964;7.642;2022-08-03T02:41:17;4.63;;;4.23;;
3379;SDS011;1703;51.964;7.642;2022-08-03T02:43:48;4.93;;;3.10;;
3379;SDS011;1703;51.964;7.642;2022-08-03T02:46:19;4.87;;;3.40;;
3379;SDS011;1703;51.964;7.642;2022-08-03T02:48:49;5.67;;;4.07;;
3379;SDS011;1703;51.964;7.642;2022-08-03T02:51:20;4.73;;;3.93;;
3379;SDS011;1703;51.964;7.642;2022-08-03T02:53:48;5.47;;;3.70;;
3379;SDS011;1703;51.964;7.642;2022-08-03T02:56:16;6.20;;;3.90;;
3379;SDS011;1703;51.964;7.642;2022-08-03T02:58:44;8.17;;;3.57;;
3379;SDS011;1703;51.964;7.642;2022-08-03T03:01:13;9.87;;;3.60;;
3379;SDS011;1703;51.964;7.642;2022-08-03T03:03:41;4.33;;;3.90;;
3379;SDS011;1703;51.964;7.642;2022-08-03T03:06:09;4.93;;;4.53;;
3379;SDS011;1703;51.964;7.642;2022-08-03T03:08:39;5.10;;;4.10;;
3379;SDS011;1703;51.964;7.642;2022-08-03T03:11:05;5.10;;;4.17;;
3379;SDS011;1703;51.964;7.642;2022-08-03T03:13:33;3.03;;;2.83;;
3379;SDS011;1703;51.964;7.642;2022-08-03T03:16:03;5.00;;;4.50;;
3379;SDS011;1703;51.964;7.642;2022-08-03T03:18:32;6.30;;;5.00;;
3379;SDS011;1703;51.964;7.642;2022-08-03T03:21:00;5.70;;;4.87;;
3379;SDS011;1703;51.964;7.642;2022-08-03T03:23:28;7.53;;;4.27;;
3379;SDS011;1703;51.964;7.642;2022-08-03T03:25:58;5.63;;;5.10;;
3379;SDS011;1703;51.964;7.642;2022-08-03T03:28:26;8.50;;;5.10;;
3379;SDS011;1703;51.964;7.642;2022-08-03T03:30:53;7.70;;;5.17;;
3379;SDS011;1703;51.964;7.642;2022-08-03T03:33:20;8.53;;;5.30;;
3379;SDS011;1703;51.964;7.642;2022-08-03T03:35:47;6.87;;;5.20;;
3379;SDS011;1703;51.964;7.642;2022-08-03T03:40:47;6.17;;;5.60;;
3379;SDS011;1703;51.964;7.642;2022-08-03T03:43:15;10.27;;;7.47;;
3379;SDS011;1703;51.964;7.642;2022-08-03T03:45:43;7.70;;;5.10;;
3379;SDS011;1703;51.964;7.642;2022-08-03T03:48:11;12.70;;;6.23;;
3379;SDS011;1703;51.964;7.642;2022-08-03T03:50:38;8.37;;;5.30;;
3379;SDS011;1703;51.964;7.642;2022-08-03T03:53:07;5.07;;;4.23;;
3379;SDS011;1703;51.964;7.642;2022-08-03T03:55:34;7.30;;;5.57;;
3379;SDS011;1703;51.964;7.642;2022-08-03T03:58:02;6.80;;;4.50;;
3379;SDS011;1703;51.964;7.642;2022-08-03T04:00:30;15.53;;;5.97;;
3379;SDS011;1703;51.964;7.642;2022-08-03T04:02:57;13.13;;;5.13;;
3379;SDS011;1703;51.964;7.642;2022-08-03T04:05:24;8.07;;;4.73;;
3379;SDS011;1703;51.964;7.642;2022-08-03T04:08:09;7.87;;;4.87;;
3379;SDS011;1703;51.964;7.642;2022-08-03T04:11:01;12.53;;;4.87;;
3379;SDS011;1703;51.964;7.642;2022-08-03T04:13:36;5.30;;;4.50;;
3379;SDS011;1703;51.964;7.642;2022-08-03T04:16:06;4.70;;;4.27;;
3379;SDS011;1703;51.964;7.642;2022-08-03T04:18:35;6.00;;;5.13;;
3379;SDS011;1703;51.964;7.642;2022-08-03T04:21:07;5.43;;;4.87;;
3379;SDS011;1703;51.964;7.642;2022-08-03T04:23:36;10.10;;;4.77;;
3379;SDS011;1703;51.964;7.642;2022-08-03T04:26:06;5.80;;;5.10;;
3379;SDS011;1703;51.964;7.642;2022-08-03T04:28:36;7.40;;;5.20;;
3379;SDS011;1703;51.964;7.642;2022-08-03T04:31:07;8.03;;;5.23;;
3379;SDS011;1703;51.964;7.642;2022-08-03T04:33:34;15.03;;;6.27;;
3379;SDS011;1703;51.964;7.642;2022-08-03T04:36:04;8.93;;;5.53;;
3379;SDS011;1703;51.964;7.642;2022-08-03T04:38:34;8.33;;;5.03;;
3379;SDS011;1703;51.964;7.642;2022-08-03T04:41:03;10.23;;;6.00;;
3379;SDS011;1703;51.964;7.642;2022-08-03T04:43:30;7.33;;;5.53;;
3379;SDS011;1703;51.964;7.642;2022-08-03T04:45:58;6.75;;;6.00;;
3379;SDS011;1703;51.964;7.642;2022-08-03T04:48:27;6.00;;;5.40;;
3379;SDS011;1703;51.964;7.642;2022-08-03T04:50:54;10.43;;;5.80;;
3379;SDS011;1703;51.964;7.642;2022-08-03T04:53:22;7.77;;;5.43;;
3379;SDS011;1703;51.964;7.642;2022-08-03T04:55:48;6.10;;;5.03;;
3379;SDS011;1703;51.964;7.642;2022-08-03T04:58:15;12.27;;;7.03;;
3379;SDS011;1703;51.964;7.642;2022-08-03T05:00:42;11.63;;;6.63;;
3379;SDS011;1703;51.964;7.642;2022-08-03T05:03:09;8.00;;;5.73;;
3379;SDS011;1703;51.964;7.642;2022-08-03T05:05:37;7.00;;;4.90;;
3379;SDS011;1703;51.964;7.642;2022-08-03T05:08:04;14.70;;;5.73;;
3379;SDS011;1703;51.964;7.642;2022-08-03T05:10:31;11.70;;;7.20;;
3379;SDS011;1703;51.964;7.642;2022-08-03T05:12:58;10.97;;;5.27;;
3379;SDS011;1703;51.964;7.642;2022-08-03T05:15:24;10.10;;;6.67;;
3379;SDS011;1703;51.964;7.642;2022-08-03T05:17:52;14.67;;;4.90;;
3379;SDS011;1703;51.964;7.642;2022-08-03T05:20:18;12.23;;;6.33;;
3379;SDS011;1703;51.964;7.642;2022-08-03T05:22:47;9.37;;;6.20;;
3379;SDS011;1703;51.964;7.642;2022-08-03T05:25:13;7.77;;;5.57;;
3379;SDS011;1703;51.964;7.642;2022-08-03T05:27:40;13.97;;;5.57;;
3379;SDS011;1703;51.964;7.642;2022-08-03T05:30:08;12.27;;;5.93;;
3379;SDS011;1703;51.964;7.642;2022-08-03T05:32:35;7.97;;;4.70;;
3379;SDS011;1703;51.964;7.642;2022-08-03T05:35:01;6.53;;;5.27;;
3379;SDS011;1703;51.964;7.642;2022-08-03T05:37:28;10.23;;;5.80;;
3379;SDS011;1703;51.964;7.642;2022-08-03T05:39:56;7.40;;;5.23;;
3379;SDS011;1703;51.964;7.642;2022-08-03T05:42:23;8.67;;;5.23;;
3379;SDS011;1703;51.964;7.642;2022-08-03T05:44:50;8.50;;;6.17;;
3379;SDS011;1703;51.964;7.642;2022-08-03T05:47:17;5.83;;;4.70;;
3379;SDS011;1703;51.964;7.642;2022-08-03T05:49:44;5.60;;;5.10;;
3379;SDS011;1703;51.964;7.642;2022-08-03T05:52:11;16.33;;;5.40;;
3379;SDS011;1703;51.964;7.642;2022-08-03T05:54:37;13.97;;;5.90;;
3379;SDS011;1703;51.964;7.642;2022-08-03T05:57:05;12.57;;;6.33;;
3379;SDS011;1703;51.964;7.642;2022-08-03T05:59:32;5.67;;;4.90;;
3379;SDS011;1703;51.964;7.642;2022-08-03T06:01:59;8.07;;;5.57;;
3379;SDS011;1703;51.964;7.642;2022-08-03T06:04:26;13.33;;;4.97;;
3379;SDS011;1703;51.964;7.642;2022-08-03T06:06:52;9.87;;;5.10;;
3379;SDS011;1703;51.964;7.642;2022-08-03T06:09:19;14.17;;;6.10;;
3379;SDS011;1703;51.964;7.642;2022-08-03T06:11:46;9.40;;;5.33;;
3379;SDS011;1703;51.964;7.642;2022-08-03T06:14:14;10.07;;;5.00;;
3379;SDS011;1703;51.964;7.642;2022-08-03T06:16:41;11.07;;;4.33;;
3379;SDS011;1703;51.964;7.642;2022-08-03T06:19:07;6.83;;;5.20;;
3379;SDS011;1703;51.964;7.642;2022-08-03T06:21:34;9.90;;;4.50;;
3379;SDS011;1703;51.964;7.642;2022-08-03T06:24:01;5.60;;;3.67;;
3379;SDS011;1703;51.964;7.642;2022-08-03T06:26:28;5.37;;;4.50;;
3379;SDS011;1703;51.964;7.642;2022-08-03T06:28:55;8.03;;;4.00;;
3379;SDS011;1703;51.964;7.642;2022-08-03T06:31:24;11.53;;;4.43;;
3379;SDS011;1703;51.964;7.642;2022-08-03T06:33:53;7.47;;;3.60;;
3379;SDS011;1703;51.964;7.642;2022-08-03T06:36:20;13.20;;;4.90;;
3379;SDS011;1703;51.964;7.642;2022-08-03T06:38:47;4.47;;;3.47;;
3379;SDS011;1703;51.964;7.642;2022-08-03T06:41:14;8.97;;;4.30;;
3379;SDS011;1703;51.964;7.642;2022-08-03T06:43:40;9.50;;;4.70;;
3379;SDS011;1703;51.964;7.642;2022-08-03T06:46:07;7.43;;;4.10;;
3379;SDS011;1703;51.964;7.642;2022-08-03T06:48:36;5.50;;;4.97;;
3379;SDS011;1703;51.964;7.642;2022-08-03T06:51:03;9.13;;;4.20;;
3379;SDS011;1703;51.964;7.642;2022-08-03T06:53:29;4.37;;;3.63;;
3379;SDS011;1703;51.964;7.642;2022-08-03T06:55:56;6.73;;;4.47;;
3379;SDS011;1703;51.964;7.642;2022-08-03T06:58:23;10.87;;;4.20;;
3379;SDS011;1703;51.964;7.642;2022-08-03T07:00:50;5.40;;;3.33;;
3379;SDS011;1703;51.964;7.642;2022-08-03T07:03:17;6.33;;;4.80;;
3379;SDS011;1703;51.964;7.642;2022-08-03T07:05:45;6.80;;;5.00;;
3379;SDS011;1703;51.964;7.642;2022-08-03T07:08:13;6.70;;;4.27;;
3379;SDS011;1703;51.964;7.642;2022-08-03T07:10:40;7.30;;;3.70;;
3379;SDS011;1703;51.964;7.642;2022-08-03T07:13:07;5.50;;;4.00;;
3379;SDS011;1703;51.964;7.642;2022-08-03T07:15:34;7.83;;;4.50;;
3379;SDS011;1703;51.964;7.642;2022-08-03T07:18:01;16.13;;;4.43;;
3379;SDS011;1703;51.964;7.642;2022-08-03T07:20:27;4.10;;;3.80;;
3379;SDS011;1703;51.964;7.642;2022-08-03T07:22:56;8.63;;;3.80;;
3379;SDS011;1703;51.964;7.642;2022-08-03T07:25:24;5.37;;;4.63;;
3379;SDS011;1703;51.964;7.642;2022-08-03T07:27:51;8.90;;;4.00;;
3379;SDS011;1703;51.964;7.642;2022-08-03T07:30:17;9.20;;;4.43;;
3379;SDS011;1703;51.964;7.642;2022-08-03T07:32:45;6.80;;;4.93;;
3379;SDS011;1703;51.964;7.642;2022-08-03T07:35:12;7.07;;;4.27;;
3379;SDS011;1703;51.964;7.642;2022-08-03T07:37:39;7.77;;;3.77;;
3379;SDS011;1703;51.964;7.642;2022-08-03T07:40:07;6.27;;;3.37;;
3379;SDS011;1703;51.964;7.642;2022-08-03T07:42:34;4.30;;;3.47;;
3379;SDS011;1703;51.964;7.642;2022-08-03T07:45:01;9.63;;;4.30;;
3379;SDS011;1703;51.964;7.642;2022-08-03T07:47:29;7.97;;;4.20;;
3379;SDS011;1703;51.964;7.642;2022-08-03T07:49:58;4.20;;;3.27;;
3379;SDS011;1703;51.964;7.642;2022-08-03T07:52:25;9.57;;;3.70;;
3379;SDS011;1703;51.964;7.642;2022-08-03T07:55:10;9.43;;;3.87;;
3379;SDS011;1703;51.964;7.642;2022-08-03T07:57:37;5.97;;;3.37;;
3379;SDS011;1703;51.964;7.642;2022-08-03T08:00:05;8.70;;;3.57;;
3379;SDS011;1703;51.964;7.642;2022-08-03T08:02:40;5.53;;;3.40;;
3379;SDS011;1703;51.964;7.642;2022-08-03T08:05:07;10.43;;;4.87;;
3379;SDS011;1703;51.964;7.642;2022-08-03T08:07:35;5.00;;;2.87;;
3379;SDS011;1703;51.964;7.642;2022-08-03T08:10:02;9.23;;;3.20;;
3379;SDS011;1703;51.964;7.642;2022-08-03T08:12:31;7.70;;;3.20;;
3379;SDS011;1703;51.964;7.642;2022-08-03T08:14:58;3.90;;;2.73;;
3379;SDS011;1703;51.964;7.642;2022-08-03T08:17:25;3.90;;;2.83;;
3379;SDS011;1703;51.964;7.642;2022-08-03T08:19:52;3.00;;;2.70;;
3379;SDS011;1703;51.964;7.642;2022-08-03T08:22:18;5.77;;;2.60;;
3379;SDS011;1703;51.964;7.642;2022-08-03T08:24:45;15.13;;;2.80;;
3379;SDS011;1703;51.964;7.642;2022-08-03T08:27:13;2.87;;;2.67;;
3379;SDS011;1703;51.964;7.642;2022-08-03T08:29:41;7.50;;;3.17;;
3379;SDS011;1703;51.964;7.642;2022-08-03T08:32:08;7.90;;;3.53;;
3379;SDS011;1703;51.964;7.642;2022-08-03T08:34:35;4.83;;;3.30;;
3379;SDS011;1703;51.964;7.642;2022-08-03T08:37:02;5.97;;;2.80;;
3379;SDS011;1703;51.964;7.642;2022-08-03T08:39:29;3.63;;;2.23;;
3379;SDS011;1703;51.964;7.642;2022-08-03T08:41:56;8.40;;;3.20;;
3379;SDS011;1703;51.964;7.642;2022-08-03T08:44:25;5.00;;;3.00;;
3379;SDS011;1703;51.964;7.642;2022-08-03T08:46:55;7.40;;;2.77;;
3379;SDS011;1703;51.964;7.642;2022-08-03T08:49:25;4.90;;;3.30;;
3379;SDS011;1703;51.964;7.642;2022-08-03T08:51:53;4.77;;;3.00;;
3379;SDS011;1703;51.964;7.642;2022-08-03T08:54:21;7.13;;;3.77;;
3379;SDS011;1703;51.964;7.642;2022-08-03T08:56:49;7.03;;;2.23;;
3379;SDS011;1703;51.964;7.642;2022-08-03T08:59:17;4.40;;;2.90;;
3379;SDS011;1703;51.964;7.642;2022-08-03T09:01:45;7.37;;;2.80;;
3379;SDS011;1703;51.964;7.642;2022-08-03T09:04:13;4.20;;;2.97;;
3379;SDS011;1703;51.964;7.642;2022-08-03T09:06:40;6.30;;;2.87;;
3379;SDS011;1703;51.964;7.642;2022-08-03T09:09:07;5.10;;;2.80;;
3379;SDS011;1703;51.964;7.642;2022-08-03T09:11:34;2.80;;;2.60;;
3379;SDS011;1703;51.964;7.642;2022-08-03T09:14:01;3.50;;;2.60;;
3379;SDS011;1703;51.964;7.642;2022-08-03T09:16:27;5.97;;;3.00;;
3379;SDS011;1703;51.964;7.642;2022-08-03T09:19:10;3.90;;;2.90;;
3379;SDS011;1703;51.964;7.642;2022-08-03T09:21:41;5.97;;;3.53;;
3379;SDS011;1703;51.964;7.642;2022-08-03T09:24:09;3.33;;;2.07;;
3379;SDS011;1703;51.964;7.642;2022-08-03T09:26:36;4.00;;;2.43;;
3379;SDS011;1703;51.964;7.642;2022-08-03T09:29:04;3.83;;;2.47;;
3379;SDS011;1703;51.964;7.642;2022-08-03T09:31:34;5.23;;;2.70;;
3379;SDS011;1703;51.964;7.642;2022-08-03T09:34:03;5.53;;;3.00;;
3379;SDS011;1703;51.964;7.642;2022-08-03T09:36:39;6.10;;;3.80;;
3379;SDS011;1703;51.964;7.642;2022-08-03T09:39:09;7.90;;;3.20;;
3379;SDS011;1703;51.964;7.642;2022-08-03T09:41:37;4.60;;;2.60;;
3379;SDS011;1703;51.964;7.642;2022-08-03T09:44:05;5.13;;;2.80;;
3379;SDS011;1703;51.964;7.642;2022-08-03T09:46:46;2.60;;;2.40;;
3379;SDS011;1703;51.964;7.642;2022-08-03T09:49:13;4.70;;;2.57;;
3379;SDS011;1703;51.964;7.642;2022-08-03T09:51:41;5.37;;;2.30;;
3379;SDS011;1703;51.964;7.642;2022-08-03T09:54:08;2.83;;;2.57;;
3379;SDS011;1703;51.964;7.642;2022-08-03T09:56:39;4.43;;;3.07;;
3379;SDS011;1703;51.964;7.642;2022-08-03T09:59:07;5.33;;;2.70;;
3379;SDS011;1703;51.964;7.642;2022-08-03T10:01:34;3.80;;;2.20;;
3379;SDS011;1703;51.964;7.642;2022-08-03T10:04:03;3.10;;;2.80;;
3379;SDS011;1703;51.964;7.642;2022-08-03T10:06:30;3.17;;;2.87;;
3379;SDS011;1703;51.964;7.642;2022-08-03T10:09:05;4.07;;;2.97;;
3379;SDS011;1703;51.964;7.642;2022-08-03T10:11:33;4.43;;;2.80;;
3379;SDS011;1703;51.964;7.642;2022-08-03T10:14:01;4.50;;;2.20;;
3379;SDS011;1703;51.964;7.642;2022-08-03T10:16:33;4.70;;;2.87;;
3379;SDS011;1703;51.964;7.642;2022-08-03T10:19:01;10.40;;;2.93;;
3379;SDS011;1703;51.964;7.642;2022-08-03T10:21:30;6.87;;;3.47;;
3379;SDS011;1703;51.964;7.642;2022-08-03T10:23:59;5.67;;;2.53;;
3379;SDS011;1703;51.964;7.642;2022-08-03T10:26:31;2.40;;;2.00;;
3379;SDS011;1703;51.964;7.642;2022-08-03T10:28:59;15.40;;;3.17;;
3379;SDS011;1703;51.964;7.642;2022-08-03T10:31:30;10.50;;;2.90;;
3379;SDS011;1703;51.964;7.642;2022-08-03T10:34:02;3.80;;;2.70;;
3379;SDS011;1703;51.964;7.642;2022-08-03T10:36:31;3.83;;;2.27;;
3379;SDS011;1703;51.964;7.642;2022-08-03T10:39:02;6.90;;;3.23;;
3379;SDS011;1703;51.964;7.642;2022-08-03T10:41:31;5.50;;;4.00;;
3379;SDS011;1703;51.964;7.642;2022-08-03T10:44:02;7.80;;;3.13;;
3379;SDS011;1703;51.964;7.642;2022-08-03T10:46:32;5.60;;;2.20;;
3379;SDS011;1703;51.964;7.642;2022-08-03T10:48:59;4.17;;;2.60;;
3379;SDS011;1703;51.964;7.642;2022-08-03T10:51:27;6.50;;;2.90;;
3379;SDS011;1703;51.964;7.642;2022-08-03T10:53:56;2.90;;;2.23;;
3379;SDS011;1703;51.964;7.642;2022-08-03T10:56:40;5.17;;;2.53;;
3379;SDS011;1703;51.964;7.642;2022-08-03T11:02:23;3.90;;;2.10;;
3379;SDS011;1703;51.964;7.642;2022-08-03T11:05:33;3.50;;;2.43;;
3379;SDS011;1703;51.964;7.642;2022-08-03T11:10:56;3.10;;;2.30;;
3379;SDS011;1703;51.964;7.642;2022-08-03T11:13:26;5.00;;;2.90;;
3379;SDS011;1703;51.964;7.642;2022-08-03T11:15:59;9.67;;;2.87;;
3379;SDS011;1703;51.964;7.642;2022-08-03T11:18:28;3.37;;;2.43;;
3379;SDS011;1703;51.964;7.642;2022-08-03T11:20:56;5.20;;;3.30;;
3379;SDS011;1703;51.964;7.642;2022-08-03T11:23:40;6.30;;;2.53;;
3379;SDS011;1703;51.964;7.642;2022-08-03T11:26:13;6.63;;;3.77;;
3379;SDS011;1703;51.964;7.642;2022-08-03T11:28:43;2.87;;;2.40;;
3379;SDS011;1703;51.964;7.642;2022-08-03T11:34:20;4.43;;;2.33;;
3379;SDS011;1703;51.964;7.642;2022-08-03T11:39:49;5.70;;;3.17;;
3379;SDS011;1703;51.964;7.642;2022-08-03T11:45:07;6.03;;;3.00;;
3379;SDS011;1703;51.964;7.642;2022-08-03T11:47:36;6.70;;;3.17;;
3379;SDS011;1703;51.964;7.642;2022-08-03T11:50:04;7.13;;;2.57;;
3379;SDS011;1703;51.964;7.642;2022-08-03T11:52:35;7.43;;;2.90;;
3379;SDS011;1703;51.964;7.642;2022-08-03T11:55:09;5.40;;;2.77;;
3379;SDS011;1703;51.964;7.642;2022-08-03T11:57:38;6.10;;;3.27;;
3379;SDS011;1703;51.964;7.642;2022-08-03T12:00:25;7.53;;;3.37;;
3379;SDS011;1703;51.964;7.642;2022-08-03T12:02:57;12.83;;;3.80;;
3379;SDS011;1703;51.964;7.642;2022-08-03T12:05:35;7.60;;;3.17;;
3379;SDS011;1703;51.964;7.642;2022-08-03T12:08:04;7.43;;;2.77;;
3379;SDS011;1703;51.964;7.642;2022-08-03T12:10:31;6.20;;;3.60;;
3379;SDS011;1703;51.964;7.642;2022-08-03T12:12:59;7.10;;;3.10;;
3379;SDS011;1703;51.964;7.642;2022-08-03T12:15:31;4.93;;;3.00;;
3379;SDS011;1703;51.964;7.642;2022-08-03T12:17:59;3.73;;;2.83;;
3379;SDS011;1703;51.964;7.642;2022-08-03T12:20:27;10.17;;;3.20;;
3379;SDS011;1703;51.964;7.642;2022-08-03T12:23:00;8.17;;;3.13;;
3379;SDS011;1703;51.964;7.642;2022-08-03T12:25:28;8.90;;;2.97;;
3379;SDS011;1703;51.964;7.642;2022-08-03T12:28:05;8.90;;;4.33;;
3379;SDS011;1703;51.964;7.642;2022-08-03T12:30:35;21.10;;;3.10;;
3379;SDS011;1703;51.964;7.642;2022-08-03T12:33:12;13.17;;;3.40;;
3379;SDS011;1703;51.964;7.642;2022-08-03T12:35:40;6.97;;;3.40;;
3379;SDS011;1703;51.964;7.642;2022-08-03T12:38:07;7.03;;;3.60;;
3379;SDS011;1703;51.964;7.642;2022-08-03T12:40:35;7.33;;;3.40;;
3379;SDS011;1703;51.964;7.642;2022-08-03T12:43:09;8.20;;;2.50;;
3379;SDS011;1703;51.964;7.642;2022-08-03T12:45:38;4.43;;;3.20;;
3379;SDS011;1703;51.964;7.642;2022-08-03T12:48:07;5.03;;;2.70;;
3379;SDS011;1703;51.964;7.642;2022-08-03T12:50:36;4.90;;;2.60;;
3379;SDS011;1703;51.964;7.642;2022-08-03T12:53:07;5.07;;;2.50;;
3379;SDS011;1703;51.964;7.642;2022-08-03T12:55:35;8.63;;;2.90;;
3379;SDS011;1703;51.964;7.642;2022-08-03T12:58:03;4.53;;;2.53;;
3379;SDS011;1703;51.964;7.642;2022-08-03T13:00:31;5.50;;;2.40;;
3379;SDS011;1703;51.964;7.642;2022-08-03T13:03:01;7.67;;;2.53;;
3379;SDS011;1703;51.964;7.642;2022-08-03T13:05:30;7.70;;;2.23;;
3379;SDS011;1703;51.964;7.642;2022-08-03T13:07:57;7.20;;;2.70;;
3379;SDS011;1703;51.964;7.642;2022-08-03T13:10:28;3.23;;;1.80;;
3379;SDS011;1703;51.964;7.642;2022-08-03T13:12:56;4.80;;;2.60;;
3379;SDS011;1703;51.964;7.642;2022-08-03T13:15:24;10.10;;;3.17;;
3379;SDS011;1703;51.964;7.642;2022-08-03T13:17:52;6.73;;;3.27;;
3379;SDS011;1703;51.964;7.642;2022-08-03T13:20:21;4.50;;;2.60;;
3379;SDS011;1703;51.964;7.642;2022-08-03T13:22:48;7.70;;;2.70;;
3379;SDS011;1703;51.964;7.642;2022-08-03T13:25:15;10.83;;;2.87;;
3379;SDS011;1703;51.964;7.642;2022-08-03T13:27:41;11.07;;;4.20;;
3379;SDS011;1703;51.964;7.642;2022-08-03T13:30:08;6.73;;;2.73;;
3379;SDS011;1703;51.964;7.642;2022-08-03T13:32:36;8.13;;;2.50;;
3379;SDS011;1703;51.964;7.642;2022-08-03T13:35:03;16.73;;;2.40;;
3379;SDS011;1703;51.964;7.642;2022-08-03T13:37:32;13.10;;;2.73;;
3379;SDS011;1703;51.964;7.642;2022-08-03T13:39:58;7.90;;;3.43;;
3379;SDS011;1703;51.964;7.642;2022-08-03T13:42:27;6.97;;;2.20;;
3379;SDS011;1703;51.964;7.642;2022-08-03T13:44:55;5.70;;;2.50;;
3379;SDS011;1703;51.964;7.642;2022-08-03T13:47:21;7.53;;;2.88;;
3379;SDS011;1703;51.964;7.642;2022-08-03T13:49:48;8.10;;;2.63;;
3379;SDS011;1703;51.964;7.642;2022-08-03T13:52:17;4.68;;;2.25;;
3379;SDS011;1703;51.964;7.642;2022-08-03T13:54:45;11.02;;;3.03;;
3379;SDS011;1703;51.964;7.642;2022-08-03T13:57:12;8.55;;;2.65;;
3379;SDS011;1703;51.964;7.642;2022-08-03T13:59:39;9.80;;;2.72;;
3379;SDS011;1703;51.964;7.642;2022-08-03T14:02:05;7.95;;;1.98;;
3379;SDS011;1703;51.964;7.642;2022-08-03T14:04:32;7.43;;;2.08;;
3379;SDS011;1703;51.964;7.642;2022-08-03T14:06:59;8.55;;;2.42;;
3379;SDS011;1703;51.964;7.642;2022-08-03T14:09:26;8.15;;;2.13;;
3379;SDS011;1703;51.964;7.642;2022-08-03T14:11:54;7.82;;;2.40;;
3379;SDS011;1703;51.964;7.642;2022-08-03T14:14:21;3.90;;;2.13;;
3379;SDS011;1703;51.964;7.642;2022-08-03T14:16:48;10.18;;;2.38;;
3379;SDS011;1703;51.964;7.642;2022-08-03T14:19:15;12.02;;;2.45;;
3379;SDS011;1703;51.964;7.642;2022-08-03T14:21:42;7.22;;;1.95;;
3379;SDS011;1703;51.964;7.642;2022-08-03T14:24:09;5.10;;;2.72;;
3379;SDS011;1703;51.964;7.642;2022-08-03T14:26:35;2.50;;;1.85;;
3379;SDS011;1703;51.964;7.642;2022-08-03T14:29:03;6.47;;;1.65;;
3379;SDS011;1703;51.964;7.642;2022-08-03T14:31:30;5.93;;;2.08;;
3379;SDS011;1703;51.964;7.642;2022-08-03T14:33:57;3.50;;;1.92;;
3379;SDS011;1703;51.964;7.642;2022-08-03T14:36:24;5.22;;;2.25;;
3379;SDS011;1703;51.964;7.642;2022-08-03T14:38:51;7.68;;;2.47;;
3379;SDS011;1703;51.964;7.642;2022-08-03T14:41:17;8.82;;;2.28;;
3379;SDS011;1703;51.964;7.642;2022-08-03T14:43:44;4.30;;;1.67;;
3379;SDS011;1703;51.964;7.642;2022-08-03T14:46:12;8.27;;;2.05;;
3379;SDS011;1703;51.964;7.642;2022-08-03T14:48:39;5.60;;;1.70;;
3379;SDS011;1703;51.964;7.642;2022-08-03T14:51:06;4.80;;;2.05;;
3379;SDS011;1703;51.964;7.642;2022-08-03T14:53:33;10.57;;;2.35;;
3379;SDS011;1703;51.964;7.642;2022-08-03T14:56:00;6.50;;;2.03;;
3379;SDS011;1703;51.964;7.642;2022-08-03T14:58:27;6.25;;;1.90;;
3379;SDS011;1703;51.964;7.642;2022-08-03T15:00:54;8.85;;;2.10;;
3379;SDS011;1703;51.964;7.642;2022-08-03T15:03:23;2.22;;;2.00;;
3379;SDS011;1703;51.964;7.642;2022-08-03T15:05:50;5.07;;;2.47;;
3379;SDS011;1703;51.964;7.642;2022-08-03T15:08:17;4.00;;;1.70;;
3379;SDS011;1703;51.964;7.642;2022-08-03T15:10:44;7.57;;;2.13;;
3379;SDS011;1703;51.964;7.642;2022-08-03T15:13:12;6.80;;;1.77;;
3379;SDS011;1703;51.964;7.642;2022-08-03T15:15:39;5.80;;;1.93;;
3379;SDS011;1703;51.964;7.642;2022-08-03T15:18:05;4.10;;;2.00;;
3379;SDS011;1703;51.964;7.642;2022-08-03T15:20:34;4.30;;;2.20;;
3379;SDS011;1703;51.964;7.642;2022-08-03T15:23:01;6.50;;;2.03;;
3379;SDS011;1703;51.964;7.642;2022-08-03T15:25:28;3.80;;;1.70;;
3379;SDS011;1703;51.964;7.642;2022-08-03T15:27:54;3.90;;;1.50;;
3379;SDS011;1703;51.964;7.642;2022-08-03T15:30:21;4.73;;;2.00;;
3379;SDS011;1703;51.964;7.642;2022-08-03T15:32:48;4.40;;;1.77;;
3379;SDS011;1703;51.964;7.642;2022-08-03T15:35:15;3.13;;;2.10;;
3379;SDS011;1703;51.964;7.642;2022-08-03T15:37:43;3.20;;;1.43;;
3379;SDS011;1703;51.964;7.642;2022-08-03T15:40:10;4.83;;;1.57;;
3379;SDS011;1703;51.964;7.642;2022-08-03T15:42:37;4.73;;;1.60;;